Gladstone, Oregon
Current Conditions -  °F | °C
As of 2:53 AM on Saturday 20 Dec 2014 (Local Time) from KUAO Reporting Station
Light Rain Light Rain  
Wind Chill: 42°   Ceiling: 5000
Heat Index: 48°   Visibility: 10mi
Dew Point: 44°   Wind: 15mph
Humidity: 86%   Direction: 180°S
Pressure: 29.84"   Gusts: NA
Location:  45.38°N, 122.59°W
Report Text: KUAO 201053Z AUTO 18013KT 10SM -RA FEW041 OVC050 09/07 A2984 RMK AO2 SLP105 P0002 T00890067
Loading
Personal Weather Stations






























Interactive Weather Map New forecast layout! Learn more

10-Day Weather Forecast

Advertisements
Track Severe Weather on mobile